EKBI/BLL METAR and TAF weather

Enter ICAO airport designator
Station Type Date Time Source
EKBI METAR 2024/04/15 08:20 UTC NOAA

EKBI 150820Z AUTO 18008KT 140V210 9999 FEW014/// BKN088/// 08/02 Q1005


Station Type Date Time Source
EKBI Decoded METAR 2024/04/15 08:20 UTC NOAA

Billund Lufthavn, Denmark (EKBI) 55-44N 009-10E 79M
Apr 15, 2024 - 04:20 AM EDT / 2024.04.15 0820 UTC
Wind: from the S (180 degrees) at 9 MPH (8 KT) (direction variable):0
Visibility: greater than 7 mile(s):0
Sky conditions: mostly cloudy
Temperature: 46 F (8 C)
Dew Point: 35 F (2 C)
Relative Humidity: 65%
Pressure (altimeter): 29.68 in. Hg (1005 hPa)
ob: EKBI 150820Z AUTO 18008KT 140V210 9999 FEW014/// BKN088/// 08/02 Q1005
cycle: 8

Station Type Date Time Source
EKBI TAF 2024/04/15 06:30 UTC NOAA